Etusivu
METAR-TAF:

METAR-TAF

Lentoasemat :

Moroni, Komorit

Leveyspiiri: 11-32S, Pituuspiiri: 043-16E, korkeus merenpinnasta: 29 m

Tämänhetkinen sää

Tämä raportti tehtiin 37 minuuttia sitten, kello 14.00 UTC
Tuuli 17 kn etelästä
Lämpötila 26°C
Kosteus 79%
Ilmanpaine 1017 hPa
Näkyvyys 10 km tai enemmän
Muutamia pilviä 2000 ft:n korkeudessa

METAR: FMCH 271400Z 19017KT 9999 FEW020 26/22 Q1017 NOSIG

Aika: 17:37 (14:37 UTC)

Sääennuste

Tämä raportti tehtiin 3 tuntia ja 37 minuuttia sitten, kello 11.00 UTC
Ennuste voimassa 27. päivästä klo 12 UTC - 28. päivään klo 18 UTC
Tuuli 15 kn etelästä/lounaasta
Näkyvyys 10 km tai enemmän
Muutamia pilviä 2000 ft:n korkeudessa
Tulossa
27. päivästä klo 18 UTC - 27. päivään klo 20 UTC
Tuuli 8 kn idästä
Tulossa
28. päivästä klo 05 UTC - 28. päivään klo 07 UTC
Tuuli 12 kn etelästä

TAF: FMCH 271100Z 2712/2818 20015KT 9999 FEW020 BECMG 2718/2720 10008KT BECMG 2805/2807 17012KT

Säähavainnot ja -ennusteet yli 4000 lentoasemalta (METAR- ja TAF-raportit).

Käytössä olevat sääasemat on merkitty karttaan keltaisilla ja punaisilla pisteillä.

Aseta hiiri pisteen päälle nähdäksesi sääaseman nimen.

Klikkaa sitten nähdäksesi säähavainnot ja -ennusteet.

Kartan vaihtaminen: klikkaa mustalla rastilla varustettuja vihreitä pisteitä, niin voit zoomata sisään; viivalla varustettua vihreää pistettä, niin voit zoomata ulos tai vihreitä nuolia, niin pääset viereisille kartoille.


METAR-TAF: